sensor_id;sensor_type;location;lat;lon;timestamp;pressure;altitude;pressure_sealevel;temperature;humidity
71105;BME280;58760;48.716;8.962;2023-09-08T00:02:02;96731.88;;;16.36;94.26
71105;BME280;58760;48.716;8.962;2023-09-08T00:04:27;96733.13;;;16.40;96.13
71105;BME280;58760;48.716;8.962;2023-09-08T00:06:53;96729.19;;;16.36;94.01
71105;BME280;58760;48.716;8.962;2023-09-08T00:09:18;96729.63;;;16.39;94.19
71105;BME280;58760;48.716;8.962;2023-09-08T00:11:43;96727.56;;;16.28;94.42
71105;BME280;58760;48.716;8.962;2023-09-08T00:14:09;96731.47;;;16.19;95.04
71105;BME280;58760;48.716;8.962;2023-09-08T00:16:34;96734.34;;;16.24;95.50
71105;BME280;58760;48.716;8.962;2023-09-08T00:18:59;96730.38;;;16.07;96.74
71105;BME280;58760;48.716;8.962;2023-09-08T00:21:25;96727.97;;;16.18;96.51
71105;BME280;58760;48.716;8.962;2023-09-08T00:23:54;96727.94;;;16.12;98.17
71105;BME280;58760;48.716;8.962;2023-09-08T00:26:20;96726.06;;;15.99;97.22
71105;BME280;58760;48.716;8.962;2023-09-08T00:28:45;96722.78;;;16.10;99.57
71105;BME280;58760;48.716;8.962;2023-09-08T00:31:10;96721.53;;;16.06;99.07
71105;BME280;58760;48.716;8.962;2023-09-08T00:33:36;96720.31;;;16.09;98.68
71105;BME280;58760;48.716;8.962;2023-09-08T00:36:02;96720.31;;;16.09;98.52
71105;BME280;58760;48.716;8.962;2023-09-08T00:38:31;96717.19;;;15.99;98.18
71105;BME280;58760;48.716;8.962;2023-09-08T00:40:56;96722.31;;;15.94;99.05
71105;BME280;58760;48.716;8.962;2023-09-08T00:43:22;96722.09;;;15.89;99.43
71105;BME280;58760;48.716;8.962;2023-09-08T00:45:48;96720.25;;;15.83;100.00
71105;BME280;58760;48.716;8.962;2023-09-08T00:48:13;96719.59;;;15.81;99.31
71105;BME280;58760;48.716;8.962;2023-09-08T00:50:39;96717.31;;;15.71;99.02
71105;BME280;58760;48.716;8.962;2023-09-08T00:53:05;96716.47;;;15.70;99.78
71105;BME280;58760;48.716;8.962;2023-09-08T00:55:31;96714.41;;;15.66;99.65
71105;BME280;58760;48.716;8.962;2023-09-08T00:57:58;96719.75;;;15.66;99.94
71105;BME280;58760;48.716;8.962;2023-09-08T01:00:24;96713.16;;;15.62;99.76
71105;BME280;58760;48.716;8.962;2023-09-08T01:02:49;96713.78;;;15.64;99.64
71105;BME280;58760;48.716;8.962;2023-09-08T01:05:15;96714.13;;;15.54;97.79
71105;BME280;58760;48.716;8.962;2023-09-08T01:07:41;96719.53;;;15.61;98.96
71105;BME280;58760;48.716;8.962;2023-09-08T01:10:07;96717.88;;;15.60;99.24
71105;BME280;58760;48.716;8.962;2023-09-08T01:12:33;96719.34;;;15.62;99.45
71105;BME280;58760;48.716;8.962;2023-09-08T01:15:00;96716.41;;;15.57;100.00
71105;BME280;58760;48.716;8.962;2023-09-08T01:17:26;96715.19;;;15.53;100.00
71105;BME280;58760;48.716;8.962;2023-09-08T01:19:55;96716.59;;;15.49;100.00
71105;BME280;58760;48.716;8.962;2023-09-08T01:22:37;96716.78;;;15.48;100.00
71105;BME280;58760;48.716;8.962;2023-09-08T01:25:25;96715.09;;;15.40;100.00
71105;BME280;58760;48.716;8.962;2023-09-08T01:27:52;96708.50;;;15.43;100.00
71105;BME280;58760;48.716;8.962;2023-09-08T01:30:18;96713.28;;;15.47;100.00
71105;BME280;58760;48.716;8.962;2023-09-08T01:32:45;96712.25;;;15.48;100.00
71105;BME280;58760;48.716;8.962;2023-09-08T01:35:10;96704.41;;;15.40;100.00
71105;BME280;58760;48.716;8.962;2023-09-08T01:37:39;96706.41;;;15.38;100.00
71105;BME280;58760;48.716;8.962;2023-09-08T01:40:05;96706.84;;;15.42;100.00
71105;BME280;58760;48.716;8.962;2023-09-08T01:42:31;96713.41;;;15.33;100.00
71105;BME280;58760;48.716;8.962;2023-09-08T01:44:56;96707.44;;;15.31;100.00
71105;BME280;58760;48.716;8.962;2023-09-08T01:47:21;96705.59;;;15.31;100.00
71105;BME280;58760;48.716;8.962;2023-09-08T01:49:47;96707.63;;;15.29;100.00
71105;BME280;58760;48.716;8.962;2023-09-08T01:52:12;96707.63;;;15.29;100.00
71105;BME280;58760;48.716;8.962;2023-09-08T01:54:37;96709.25;;;15.24;100.00
71105;BME280;58760;48.716;8.962;2023-09-08T01:57:03;96710.88;;;15.18;100.00
71105;BME280;58760;48.716;8.962;2023-09-08T01:59:28;96697.09;;;15.21;100.00
71105;BME280;58760;48.716;8.962;2023-09-08T02:01:54;96702.19;;;15.16;100.00
71105;BME280;58760;48.716;8.962;2023-09-08T02:04:19;96700.16;;;15.18;100.00
71105;BME280;58760;48.716;8.962;2023-09-08T02:06:45;96704.88;;;15.16;100.00
71105;BME280;58760;48.716;8.962;2023-09-08T02:09:13;96708.81;;;15.20;100.00
71105;BME280;58760;48.716;8.962;2023-09-08T02:11:39;96712.88;;;15.16;100.00
71105;BME280;58760;48.716;8.962;2023-09-08T02:14:04;96698.66;;;15.09;100.00
71105;BME280;58760;48.716;8.962;2023-09-08T02:16:29;96699.88;;;15.06;100.00
71105;BME280;58760;48.716;8.962;2023-09-08T02:18:55;96699.44;;;15.03;100.00
71105;BME280;58760;48.716;8.962;2023-09-08T02:21:21;96698.44;;;15.04;100.00
71105;BME280;58760;48.716;8.962;2023-09-08T02:23:46;96696.78;;;15.03;100.00
71105;BME280;58760;48.716;8.962;2023-09-08T02:26:11;96698.44;;;15.04;100.00
71105;BME280;58760;48.716;8.962;2023-09-08T02:28:37;96698.19;;;14.99;100.00
71105;BME280;58760;48.716;8.962;2023-09-08T02:31:02;96696.13;;;14.94;100.00
71105;BME280;58760;48.716;8.962;2023-09-08T02:33:27;96694.66;;;14.92;100.00
71105;BME280;58760;48.716;8.962;2023-09-08T02:35:53;96695.81;;;14.83;100.00
71105;BME280;58760;48.716;8.962;2023-09-08T02:38:19;96703.88;;;14.89;100.00
71105;BME280;58760;48.716;8.962;2023-09-08T02:40:44;96701.81;;;14.85;100.00
71105;BME280;58760;48.716;8.962;2023-09-08T02:43:09;96694.41;;;14.87;100.00
71105;BME280;58760;48.716;8.962;2023-09-08T02:45:35;96697.47;;;14.84;100.00
71105;BME280;58760;48.716;8.962;2023-09-08T02:48:01;96692.53;;;14.81;100.00
71105;BME280;58760;48.716;8.962;2023-09-08T02:50:26;96701.09;;;14.76;100.00
71105;BME280;58760;48.716;8.962;2023-09-08T02:52:52;96687.97;;;14.75;100.00
71105;BME280;58760;48.716;8.962;2023-09-08T02:55:17;96702.78;;;14.77;100.00
71105;BME280;58760;48.716;8.962;2023-09-08T02:57:42;96705.22;;;14.72;100.00
71105;BME280;58760;48.716;8.962;2023-09-08T03:00:08;96698.38;;;14.70;100.00
71105;BME280;58760;48.716;8.962;2023-09-08T03:02:34;96693.44;;;14.66;100.00
71105;BME280;58760;48.716;8.962;2023-09-08T03:05:00;96695.25;;;14.59;100.00
71105;BME280;58760;48.716;8.962;2023-09-08T03:07:26;96690.53;;;14.61;100.00
71105;BME280;58760;48.716;8.962;2023-09-08T03:09:51;96701.03;;;14.63;100.00
71105;BME280;58760;48.716;8.962;2023-09-08T03:12:16;96698.53;;;14.61;100.00
71105;BME280;58760;48.716;8.962;2023-09-08T03:14:42;96688.69;;;14.62;100.00
71105;BME280;58760;48.716;8.962;2023-09-08T03:17:07;96687.81;;;14.55;100.00
71105;BME280;58760;48.716;8.962;2023-09-08T03:19:32;96686.09;;;14.47;100.00
71105;BME280;58760;48.716;8.962;2023-09-08T03:21:58;96686.31;;;14.46;100.00
71105;BME280;58760;48.716;8.962;2023-09-08T03:24:23;96691.00;;;14.44;100.00
71105;BME280;58760;48.716;8.962;2023-09-08T03:26:49;96690.19;;;14.43;100.00
71105;BME280;58760;48.716;8.962;2023-09-08T03:29:14;96679.06;;;14.40;100.00
71105;BME280;58760;48.716;8.962;2023-09-08T03:31:40;96688.66;;;14.34;100.00
71105;BME280;58760;48.716;8.962;2023-09-08T03:34:05;96689.16;;;14.44;100.00
71105;BME280;58760;48.716;8.962;2023-09-08T03:36:31;96686.88;;;14.41;100.00
71105;BME280;58760;48.716;8.962;2023-09-08T03:38:56;96685.25;;;14.40;100.00
71105;BME280;58760;48.716;8.962;2023-09-08T03:41:23;96685.25;;;14.40;100.00
71105;BME280;58760;48.716;8.962;2023-09-08T03:43:48;96689.31;;;14.36;100.00
71105;BME280;58760;48.716;8.962;2023-09-08T03:46:14;96688.66;;;14.34;100.00
71105;BME280;58760;48.716;8.962;2023-09-08T03:48:39;96686.63;;;14.36;100.00
71105;BME280;58760;48.716;8.962;2023-09-08T03:51:05;96681.91;;;14.38;100.00
71105;BME280;58760;48.716;8.962;2023-09-08T03:53:31;96683.31;;;14.34;100.00
71105;BME280;58760;48.716;8.962;2023-09-08T03:55:56;96689.00;;;14.31;100.00
71105;BME280;58760;48.716;8.962;2023-09-08T03:58:21;96683.44;;;14.26;100.00
71105;BME280;58760;48.716;8.962;2023-09-08T04:00:47;96686.72;;;14.28;100.00
71105;BME280;58760;48.716;8.962;2023-09-08T04:03:12;96690.78;;;14.24;100.00
71105;BME280;58760;48.716;8.962;2023-09-08T04:05:37;96692.66;;;14.24;100.00
71105;BME280;58760;48.716;8.962;2023-09-08T04:08:03;96704.34;;;14.23;100.00
71105;BME280;58760;48.716;8.962;2023-09-08T04:10:28;96694.50;;;14.23;100.00
71105;BME280;58760;48.716;8.962;2023-09-08T04:12:54;96701.84;;;14.21;100.00
71105;BME280;58760;48.716;8.962;2023-09-08T04:15:19;96704.28;;;14.16;100.00
71105;BME280;58760;48.716;8.962;2023-09-08T04:17:45;96702.63;;;14.15;100.00
71105;BME280;58760;48.716;8.962;2023-09-08T04:20:10;96695.00;;;14.12;100.00
71105;BME280;58760;48.716;8.962;2023-09-08T04:22:36;96694.53;;;14.08;100.00
71105;BME280;58760;48.716;8.962;2023-09-08T04:25:02;96705.44;;;14.07;100.00
71105;BME280;58760;48.716;8.962;2023-09-08T04:27:27;96697.59;;;14.05;100.00
71105;BME280;58760;48.716;8.962;2023-09-08T04:29:53;96693.47;;;14.03;100.00
71105;BME280;58760;48.716;8.962;2023-09-08T04:32:18;96694.94;;;14.05;100.00
71105;BME280;58760;48.716;8.962;2023-09-08T04:34:43;96702.09;;;14.05;100.00
71105;BME280;58760;48.716;8.962;2023-09-08T04:37:09;96704.78;;;14.05;100.00
71105;BME280;58760;48.716;8.962;2023-09-08T04:39:35;96702.09;;;14.05;100.00
71105;BME280;58760;48.716;8.962;2023-09-08T04:42:02;96709.09;;;14.06;100.00
71105;BME280;58760;48.716;8.962;2023-09-08T04:44:27;96707.06;;;14.08;100.00
71105;BME280;58760;48.716;8.962;2023-09-08T04:46:54;96706.44;;;14.06;100.00
71105;BME280;58760;48.716;8.962;2023-09-08T04:49:20;96709.09;;;14.06;100.00
71105;BME280;58760;48.716;8.962;2023-09-08T04:51:46;96713.16;;;14.02;100.00
71105;BME280;58760;48.716;8.962;2023-09-08T04:54:11;96717.97;;;13.92;100.00
71105;BME280;58760;48.716;8.962;2023-09-08T04:56:38;96715.69;;;13.89;100.00
71105;BME280;58760;48.716;8.962;2023-09-08T04:59:03;96714.69;;;13.90;100.00
71105;BME280;58760;48.716;8.962;2023-09-08T05:01:29;96717.72;;;13.87;100.00
71105;BME280;58760;48.716;8.962;2023-09-08T05:03:58;96717.09;;;13.85;100.00
71105;BME280;58760;48.716;8.962;2023-09-08T05:06:24;96716.00;;;13.79;100.00
71105;BME280;58760;48.716;8.962;2023-09-08T05:08:50;96716.19;;;13.78;100.00
71105;BME280;58760;48.716;8.962;2023-09-08T05:11:15;96722.34;;;13.78;100.00
71105;BME280;58760;48.716;8.962;2023-09-08T05:13:41;96723.16;;;13.79;100.00
71105;BME280;58760;48.716;8.962;2023-09-08T05:16:06;96715.63;;;13.82;100.00
71105;BME280;58760;48.716;8.962;2023-09-08T05:18:43;96723.50;;;13.90;100.00
71105;BME280;58760;48.716;8.962;2023-09-08T05:21:08;96724.41;;;13.97;100.00
71105;BME280;58760;48.716;8.962;2023-09-08T05:23:33;96720.34;;;14.01;100.00
71105;BME280;58760;48.716;8.962;2023-09-08T05:26:01;96727.16;;;14.04;100.00
71105;BME280;58760;48.716;8.962;2023-09-08T05:28:26;96728.22;;;14.09;100.00
71105;BME280;58760;48.716;8.962;2023-09-08T05:30:52;96728.41;;;14.08;100.00
71105;BME280;58760;48.716;8.962;2023-09-08T05:33:18;96728.06;;;14.11;100.00
71105;BME280;58760;48.716;8.962;2023-09-08T05:35:45;96741.66;;;14.16;100.00
71105;BME280;58760;48.716;8.962;2023-09-08T05:38:10;96737.97;;;14.17;100.00
71105;BME280;58760;48.716;8.962;2023-09-08T05:40:36;96740.13;;;14.28;100.00
71105;BME280;58760;48.716;8.962;2023-09-08T05:43:01;96738.47;;;14.27;100.00
71105;BME280;58760;48.716;8.962;2023-09-08T05:45:27;96747.75;;;14.31;100.00
71105;BME280;58760;48.716;8.962;2023-09-08T05:47:52;96747.56;;;14.33;100.00
71105;BME280;58760;48.716;8.962;2023-09-08T05:50:18;96736.16;;;14.39;100.00
71105;BME280;58760;48.716;8.962;2023-09-08T05:52:43;96746.06;;;14.45;100.00
71105;BME280;58760;48.716;8.962;2023-09-08T05:55:09;96746.13;;;14.51;100.00
71105;BME280;58760;48.716;8.962;2023-09-08T05:57:34;96736.72;;;14.55;100.00
71105;BME280;58760;48.716;8.962;2023-09-08T06:00:00;96737.53;;;14.56;100.00
71105;BME280;58760;48.716;8.962;2023-09-08T06:02:25;96737.22;;;14.65;100.00
71105;BME280;58760;48.716;8.962;2023-09-08T06:04:51;96733.13;;;14.70;100.00
71105;BME280;58760;48.716;8.962;2023-09-08T06:07:16;96728.66;;;14.77;100.00
71105;BME280;58760;48.716;8.962;2023-09-08T06:09:41;96731.59;;;14.82;100.00
71105;BME280;58760;48.716;8.962;2023-09-08T06:12:07;96728.69;;;14.83;100.00
71105;BME280;58760;48.716;8.962;2023-09-08T06:14:32;96731.25;;;14.91;100.00
71105;BME280;58760;48.716;8.962;2023-09-08T06:16:57;96734.78;;;14.98;100.00
71105;BME280;58760;48.716;8.962;2023-09-08T06:19:23;96728.44;;;15.06;100.00
71105;BME280;58760;48.716;8.962;2023-09-08T06:21:48;96731.81;;;15.14;100.00
71105;BME280;58760;48.716;8.962;2023-09-08T06:24:13;96728.34;;;15.21;100.00
71105;BME280;58760;48.716;8.962;2023-09-08T06:26:39;96733.75;;;15.27;100.00
71105;BME280;58760;48.716;8.962;2023-09-08T06:29:04;96725.53;;;15.35;100.00
71105;BME280;58760;48.716;8.962;2023-09-08T06:31:30;96727.06;;;15.44;100.00
71105;BME280;58760;48.716;8.962;2023-09-08T06:33:56;96731.63;;;15.50;100.00
71105;BME280;58760;48.716;8.962;2023-09-08T06:36:21;96729.78;;;15.57;100.00
71105;BME280;58760;48.716;8.962;2023-09-08T06:38:47;96723.28;;;15.66;100.00
71105;BME280;58760;48.716;8.962;2023-09-08T06:41:12;96728.44;;;15.75;100.00
71105;BME280;58760;48.716;8.962;2023-09-08T06:43:38;96729.31;;;15.88;100.00
71105;BME280;58760;48.716;8.962;2023-09-08T06:46:03;96735.09;;;15.98;100.00
71105;BME280;58760;48.716;8.962;2023-09-08T06:48:29;96734.13;;;16.06;100.00
71105;BME280;58760;48.716;8.962;2023-09-08T06:50:55;96731.06;;;16.22;100.00
71105;BME280;58760;48.716;8.962;2023-09-08T06:53:22;96739.31;;;16.34;100.00
71105;BME280;58760;48.716;8.962;2023-09-08T06:55:48;96723.44;;;16.45;100.00
71105;BME280;58760;48.716;8.962;2023-09-08T06:58:13;96731.53;;;16.58;100.00
71105;BME280;58760;48.716;8.962;2023-09-08T07:00:40;96732.16;;;16.67;100.00
71105;BME280;58760;48.716;8.962;2023-09-08T07:03:06;96732.38;;;16.79;100.00
71105;BME280;58760;48.716;8.962;2023-09-08T07:05:34;96732.16;;;16.93;99.31
71105;BME280;58760;48.716;8.962;2023-09-08T07:07:59;96731.31;;;17.06;99.39
71105;BME280;58760;48.716;8.962;2023-09-08T07:10:24;96726.78;;;17.13;99.19
71105;BME280;58760;48.716;8.962;2023-09-08T07:12:50;96728.81;;;17.17;99.27
71105;BME280;58760;48.716;8.962;2023-09-08T07:15:15;96731.91;;;17.21;99.85
71105;BME280;58760;48.716;8.962;2023-09-08T07:17:41;96737.66;;;17.31;98.83
71105;BME280;58760;48.716;8.962;2023-09-08T07:20:07;96737.63;;;17.44;98.01
71105;BME280;58760;48.716;8.962;2023-09-08T07:22:33;96740.09;;;17.65;96.05
71105;BME280;58760;48.716;8.962;2023-09-08T07:24:58;96726.38;;;17.87;95.39
71105;BME280;58760;48.716;8.962;2023-09-08T07:27:24;96733.41;;;17.88;93.72
71105;BME280;58760;48.716;8.962;2023-09-08T07:29:49;96731.09;;;17.98;92.78
71105;BME280;58760;48.716;8.962;2023-09-08T07:32:15;96724.63;;;18.05;93.05
71105;BME280;58760;48.716;8.962;2023-09-08T07:34:41;96728.09;;;18.12;93.46
71105;BME280;58760;48.716;8.962;2023-09-08T07:37:06;96731.78;;;18.18;92.03
71105;BME280;58760;48.716;8.962;2023-09-08T07:39:32;96725.88;;;18.34;92.76
71105;BME280;58760;48.716;8.962;2023-09-08T07:41:58;96727.69;;;18.47;92.18
71105;BME280;58760;48.716;8.962;2023-09-08T07:44:23;96720.59;;;18.59;92.25
71105;BME280;58760;48.716;8.962;2023-09-08T07:46:49;96725.94;;;18.65;91.28
71105;BME280;58760;48.716;8.962;2023-09-08T07:49:16;96723.00;;;18.67;91.41
71105;BME280;58760;48.716;8.962;2023-09-08T07:51:44;96722.47;;;18.83;91.68
71105;BME280;58760;48.716;8.962;2023-09-08T07:54:09;96723.28;;;19.08;90.28
71105;BME280;58760;48.716;8.962;2023-09-08T07:56:35;96726.72;;;19.15;89.18
71105;BME280;58760;48.716;8.962;2023-09-08T07:59:00;96726.66;;;19.22;89.57
71105;BME280;58760;48.716;8.962;2023-09-08T08:01:26;96720.63;;;19.26;89.55
71105;BME280;58760;48.716;8.962;2023-09-08T08:03:51;96724.06;;;19.33;88.80
71105;BME280;58760;48.716;8.962;2023-09-08T08:06:16;96720.28;;;19.41;89.52
71105;BME280;58760;48.716;8.962;2023-09-08T08:08:42;96724.31;;;19.68;86.41
71105;BME280;58760;48.716;8.962;2023-09-08T08:11:15;96719.38;;;19.83;85.94
71105;BME280;58760;48.716;8.962;2023-09-08T08:13:40;96724.31;;;19.87;86.59
71105;BME280;58760;48.716;8.962;2023-09-08T08:16:06;96722.44;;;20.05;86.22
71105;BME280;58760;48.716;8.962;2023-09-08T08:18:32;96725.34;;;20.04;86.17
71105;BME280;58760;48.716;8.962;2023-09-08T08:20:58;96726.53;;;20.08;85.18
71105;BME280;58760;48.716;8.962;2023-09-08T08:23:25;96724.69;;;20.20;85.45
71105;BME280;58760;48.716;8.962;2023-09-08T08:25:50;96728.09;;;20.45;83.82
71105;BME280;58760;48.716;8.962;2023-09-08T08:28:16;96724.34;;;20.34;85.04
71105;BME280;58760;48.716;8.962;2023-09-08T08:30:41;96722.13;;;20.43;81.72
71105;BME280;58760;48.716;8.962;2023-09-08T08:33:06;96727.06;;;20.46;81.56
71105;BME280;58760;48.716;8.962;2023-09-08T08:35:32;96721.75;;;20.40;80.97
71105;BME280;58760;48.716;8.962;2023-09-08T08:37:58;96723.84;;;20.67;79.87
71105;BME280;58760;48.716;8.962;2023-09-08T08:40:25;96718.19;;;20.69;81.71
71105;BME280;58760;48.716;8.962;2023-09-08T08:43:01;96711.97;;;20.68;77.73
71105;BME280;58760;48.716;8.962;2023-09-08T08:45:27;96718.81;;;20.82;79.27
71105;BME280;58760;48.716;8.962;2023-09-08T08:47:54;96717.88;;;20.88;79.42
71105;BME280;58760;48.716;8.962;2023-09-08T08:50:21;96714.59;;;20.86;77.47
71105;BME280;58760;48.716;8.962;2023-09-08T08:52:46;96721.41;;;20.89;80.14
71105;BME280;58760;48.716;8.962;2023-09-08T08:55:12;96712.16;;;21.08;77.72
71105;BME280;58760;48.716;8.962;2023-09-08T08:57:40;96715.47;;;21.33;77.55
71105;BME280;58760;48.716;8.962;2023-09-08T09:00:11;96717.19;;;21.63;76.18
71105;BME280;58760;48.716;8.962;2023-09-08T09:02:42;96710.84;;;21.57;76.94
71105;BME280;58760;48.716;8.962;2023-09-08T09:05:12;96709.28;;;21.84;73.62
71105;BME280;58760;48.716;8.962;2023-09-08T09:07:39;96707.72;;;21.88;74.46
71105;BME280;58760;48.716;8.962;2023-09-08T09:10:05;96701.50;;;22.00;75.94
71105;BME280;58760;48.716;8.962;2023-09-08T09:12:32;96704.84;;;22.18;72.85
71105;BME280;58760;48.716;8.962;2023-09-08T09:14:58;96696.72;;;21.90;74.41
71105;BME280;58760;48.716;8.962;2023-09-08T09:17:24;96698.13;;;21.93;77.22
71105;BME280;58760;48.716;8.962;2023-09-08T09:19:50;96709.50;;;21.83;76.38
71105;BME280;58760;48.716;8.962;2023-09-08T09:22:20;96707.97;;;21.99;75.83
71105;BME280;58760;48.716;8.962;2023-09-08T09:24:45;96710.50;;;22.17;75.21
71105;BME280;58760;48.716;8.962;2023-09-08T09:27:12;96707.38;;;22.25;74.65
71105;BME280;58760;48.716;8.962;2023-09-08T09:29:48;96714.22;;;22.44;73.39
71105;BME280;58760;48.716;8.962;2023-09-08T09:32:14;96711.53;;;22.44;72.84
71105;BME280;58760;48.716;8.962;2023-09-08T09:34:48;96709.56;;;22.68;71.96
71105;BME280;58760;48.716;8.962;2023-09-08T09:37:15;96706.31;;;22.82;70.14
71105;BME280;58760;48.716;8.962;2023-09-08T09:39:40;96710.00;;;22.65;72.09
71105;BME280;58760;48.716;8.962;2023-09-08T09:42:06;96709.34;;;22.58;70.25
71105;BME280;58760;48.716;8.962;2023-09-08T09:44:31;96708.94;;;22.49;71.01
71105;BME280;58760;48.716;8.962;2023-09-08T09:46:56;96704.84;;;22.63;71.50
71105;BME280;58760;48.716;8.962;2023-09-08T09:49:22;96701.13;;;22.98;71.62
71105;BME280;58760;48.716;8.962;2023-09-08T09:51:53;96701.13;;;23.14;69.30
71105;BME280;58760;48.716;8.962;2023-09-08T09:54:19;96698.56;;;23.08;68.72
71105;BME280;58760;48.716;8.962;2023-09-08T09:56:45;96694.56;;;23.10;68.14
71105;BME280;58760;48.716;8.962;2023-09-08T09:59:13;96695.59;;;23.26;67.50
71105;BME280;58760;48.716;8.962;2023-09-08T10:01:40;96690.69;;;23.23;67.53
71105;BME280;58760;48.716;8.962;2023-09-08T10:04:06;96696.19;;;23.28;67.41
71105;BME280;58760;48.716;8.962;2023-09-08T10:06:32;96693.16;;;23.24;69.79
71105;BME280;58760;48.716;8.962;2023-09-08T10:09:02;96693.31;;;23.34;68.46
71105;BME280;58760;48.716;8.962;2023-09-08T10:11:49;96691.84;;;23.65;66.42
71105;BME280;58760;48.716;8.962;2023-09-08T10:14:16;96691.97;;;23.75;68.80
71105;BME280;58760;48.716;8.962;2023-09-08T10:16:44;96681.38;;;23.95;66.05
71105;BME280;58760;48.716;8.962;2023-09-08T10:19:11;96683.13;;;24.07;64.49
71105;BME280;58760;48.716;8.962;2023-09-08T10:21:40;96684.66;;;24.19;63.79
71105;BME280;58760;48.716;8.962;2023-09-08T10:24:14;96677.66;;;24.23;65.22
71105;BME280;58760;48.716;8.962;2023-09-08T10:26:44;96678.97;;;24.21;64.63
71105;BME280;58760;48.716;8.962;2023-09-08T10:29:10;96674.84;;;24.40;63.02
71105;BME280;58760;48.716;8.962;2023-09-08T10:31:36;96676.72;;;24.66;61.79
71105;BME280;58760;48.716;8.962;2023-09-08T10:34:02;96676.69;;;24.61;61.83
71105;BME280;58760;48.716;8.962;2023-09-08T10:36:29;96675.75;;;24.51;66.26
71105;BME280;58760;48.716;8.962;2023-09-08T10:38:54;96673.69;;;24.63;63.47
71105;BME280;58760;48.716;8.962;2023-09-08T10:41:39;96667.84;;;24.76;61.55
71105;BME280;58760;48.716;8.962;2023-09-08T10:44:09;96663.03;;;24.83;61.37
71105;BME280;58760;48.716;8.962;2023-09-08T10:46:34;96673.25;;;25.03;60.34
71105;BME280;58760;48.716;8.962;2023-09-08T10:49:04;96678.19;;;25.11;59.03
71105;BME280;58760;48.716;8.962;2023-09-08T10:51:32;96668.34;;;25.05;59.46
71105;BME280;58760;48.716;8.962;2023-09-08T10:53:58;96671.06;;;25.05;59.19
71105;BME280;58760;48.716;8.962;2023-09-08T10:56:29;96664.72;;;24.89;60.27
71105;BME280;58760;48.716;8.962;2023-09-08T10:59:02;96661.34;;;25.14;60.21
71105;BME280;58760;48.716;8.962;2023-09-08T11:01:28;96665.41;;;25.11;60.78
71105;BME280;58760;48.716;8.962;2023-09-08T11:03:54;96663.06;;;25.25;59.08
71105;BME280;58760;48.716;8.962;2023-09-08T11:06:20;96663.91;;;25.30;60.41
71105;BME280;58760;48.716;8.962;2023-09-08T11:08:50;96664.31;;;25.49;57.63
71105;BME280;58760;48.716;8.962;2023-09-08T11:11:20;96663.13;;;25.35;59.27
71105;BME280;58760;48.716;8.962;2023-09-08T11:13:46;96656.78;;;25.61;57.16
71105;BME280;58760;48.716;8.962;2023-09-08T11:16:13;96666.94;;;25.81;56.78
71105;BME280;58760;48.716;8.962;2023-09-08T11:18:39;96663.75;;;26.04;55.63
71105;BME280;58760;48.716;8.962;2023-09-08T11:21:08;96657.50;;;26.04;55.99
71105;BME280;58760;48.716;8.962;2023-09-08T11:23:34;96660.78;;;26.11;55.42
71105;BME280;58760;48.716;8.962;2023-09-08T11:25:59;96658.84;;;26.01;55.02
71105;BME280;58760;48.716;8.962;2023-09-08T11:28:27;96652.63;;;26.16;55.46
71105;BME280;58760;48.716;8.962;2023-09-08T11:30:53;96660.56;;;26.27;54.82
71105;BME280;58760;48.716;8.962;2023-09-08T11:33:21;96659.25;;;26.40;55.09
71105;BME280;58760;48.716;8.962;2023-09-08T11:35:53;96665.25;;;26.57;55.36
71105;BME280;58760;48.716;8.962;2023-09-08T11:38:24;96656.03;;;26.88;52.72
71105;BME280;58760;48.716;8.962;2023-09-08T11:40:50;96660.94;;;27.07;51.23
71105;BME280;58760;48.716;8.962;2023-09-08T11:43:16;96656.53;;;27.16;51.26
71105;BME280;58760;48.716;8.962;2023-09-08T11:45:42;96657.34;;;27.46;49.30
71105;BME280;58760;48.716;8.962;2023-09-08T11:48:09;96645.56;;;27.66;50.55
71105;BME280;58760;48.716;8.962;2023-09-08T11:50:35;96656.84;;;28.03;49.21
71105;BME280;58760;48.716;8.962;2023-09-08T11:53:00;96657.06;;;28.66;47.79
71105;BME280;58760;48.716;8.962;2023-09-08T11:55:28;96656.75;;;29.06;46.09
71105;BME280;58760;48.716;8.962;2023-09-08T11:57:53;96655.75;;;29.55;44.83
71105;BME280;58760;48.716;8.962;2023-09-08T12:00:22;96650.28;;;30.02;44.81
71105;BME280;58760;48.716;8.962;2023-09-08T12:02:49;96647.59;;;30.58;42.47
71105;BME280;58760;48.716;8.962;2023-09-08T12:07:49;96646.56;;;31.05;42.14
71105;BME280;58760;48.716;8.962;2023-09-08T12:10:14;96636.69;;;31.23;42.33
71105;BME280;58760;48.716;8.962;2023-09-08T12:12:48;96646.34;;;31.34;41.71
71105;BME280;58760;48.716;8.962;2023-09-08T12:15:39;96637.63;;;31.46;42.85
71105;BME280;58760;48.716;8.962;2023-09-08T12:18:10;96639.00;;;31.76;43.59
71105;BME280;58760;48.716;8.962;2023-09-08T12:20:36;96643.75;;;31.97;41.86
71105;BME280;58760;48.716;8.962;2023-09-08T12:23:04;96635.09;;;32.31;42.20
71105;BME280;58760;48.716;8.962;2023-09-08T12:25:30;96632.53;;;32.35;40.07
71105;BME280;58760;48.716;8.962;2023-09-08T12:28:00;96630.28;;;32.37;40.06
71105;BME280;58760;48.716;8.962;2023-09-08T12:30:26;96633.91;;;32.59;39.41
71105;BME280;58760;48.716;8.962;2023-09-08T12:32:58;96635.16;;;32.76;39.35
71105;BME280;58760;48.716;8.962;2023-09-08T12:35:24;96627.63;;;33.03;39.91
71105;BME280;58760;48.716;8.962;2023-09-08T12:38:00;96626.88;;;33.73;38.55
71105;BME280;58760;48.716;8.962;2023-09-08T12:40:27;96619.44;;;34.39;36.99
71105;BME280;58760;48.716;8.962;2023-09-08T12:42:53;96613.41;;;35.05;36.17
71105;BME280;58760;48.716;8.962;2023-09-08T12:45:20;96611.75;;;35.85;33.37
71105;BME280;58760;48.716;8.962;2023-09-08T12:47:45;96611.97;;;36.01;33.24
71105;BME280;58760;48.716;8.962;2023-09-08T12:50:11;96609.28;;;35.92;31.98
71105;BME280;58760;48.716;8.962;2023-09-08T12:52:38;96615.22;;;35.18;33.94
71105;BME280;58760;48.716;8.962;2023-09-08T12:55:04;96603.22;;;34.97;34.48